sensor_id;sensor_type;location;lat;lon;timestamp;P1;durP1;ratioP1;P2;durP2;ratioP2
54368;SDS011;40266;52.434;17.056;2022-09-09T00:05:12;26.90;;;17.80;;
54368;SDS011;40266;52.434;17.056;2022-09-09T00:08:03;33.70;;;18.50;;
54368;SDS011;40266;52.434;17.056;2022-09-09T00:10:48;26.60;;;16.60;;
54368;SDS011;40266;52.434;17.056;2022-09-09T00:13:48;33.20;;;18.10;;
54368;SDS011;40266;52.434;17.056;2022-09-09T00:16:37;22.40;;;15.50;;
54368;SDS011;40266;52.434;17.056;2022-09-09T00:19:46;20.80;;;15.20;;
54368;SDS011;40266;52.434;17.056;2022-09-09T00:22:36;21.80;;;14.70;;
54368;SDS011;40266;52.434;17.056;2022-09-09T00:28:22;21.90;;;14.90;;
54368;SDS011;40266;52.434;17.056;2022-09-09T00:31:11;20.10;;;13.80;;
54368;SDS011;40266;52.434;17.056;2022-09-09T00:33:58;20.10;;;13.30;;
54368;SDS011;40266;52.434;17.056;2022-09-09T00:36:48;20.80;;;11.00;;
54368;SDS011;40266;52.434;17.056;2022-09-09T00:39:37;17.00;;;11.30;;
54368;SDS011;40266;52.434;17.056;2022-09-09T00:42:26;17.40;;;11.10;;
54368;SDS011;40266;52.434;17.056;2022-09-09T00:45:51;21.80;;;11.40;;
54368;SDS011;40266;52.434;17.056;2022-09-09T00:48:52;20.10;;;11.80;;
54368;SDS011;40266;52.434;17.056;2022-09-09T00:57:58;18.10;;;11.50;;
54368;SDS011;40266;52.434;17.056;2022-09-09T01:03:36;20.80;;;14.30;;
54368;SDS011;40266;52.434;17.056;2022-09-09T01:06:35;19.70;;;14.20;;
54368;SDS011;40266;52.434;17.056;2022-09-09T01:09:22;23.00;;;14.80;;
54368;SDS011;40266;52.434;17.056;2022-09-09T01:12:24;21.80;;;14.90;;
54368;SDS011;40266;52.434;17.056;2022-09-09T01:15:16;23.10;;;15.90;;
54368;SDS011;40266;52.434;17.056;2022-09-09T01:18:27;31.10;;;16.40;;
54368;SDS011;40266;52.434;17.056;2022-09-09T01:21:16;23.30;;;14.20;;
54368;SDS011;40266;52.434;17.056;2022-09-09T01:27:55;23.10;;;14.20;;
54368;SDS011;40266;52.434;17.056;2022-09-09T01:30:42;22.50;;;12.30;;
54368;SDS011;40266;52.434;17.056;2022-09-09T01:33:28;19.80;;;12.60;;
54368;SDS011;40266;52.434;17.056;2022-09-09T01:36:15;18.50;;;12.70;;
54368;SDS011;40266;52.434;17.056;2022-09-09T01:39:23;23.20;;;13.50;;
54368;SDS011;40266;52.434;17.056;2022-09-09T01:42:14;20.40;;;13.70;;
54368;SDS011;40266;52.434;17.056;2022-09-09T01:45:00;20.50;;;13.60;;
54368;SDS011;40266;52.434;17.056;2022-09-09T01:48:03;20.70;;;14.10;;
54368;SDS011;40266;52.434;17.056;2022-09-09T01:50:59;18.80;;;12.10;;
54368;SDS011;40266;52.434;17.056;2022-09-09T01:53:54;19.00;;;12.40;;
54368;SDS011;40266;52.434;17.056;2022-09-09T02:00:07;13.40;;;9.40;;
54368;SDS011;40266;52.434;17.056;2022-09-09T02:09:19;11.50;;;7.80;;
54368;SDS011;40266;52.434;17.056;2022-09-09T02:12:08;13.10;;;9.30;;
54368;SDS011;40266;52.434;17.056;2022-09-09T02:18:46;16.50;;;10.70;;
54368;SDS011;40266;52.434;17.056;2022-09-09T02:21:39;13.00;;;8.70;;
54368;SDS011;40266;52.434;17.056;2022-09-09T02:27:23;15.10;;;10.10;;
54368;SDS011;40266;52.434;17.056;2022-09-09T02:30:06;21.50;;;8.80;;
54368;SDS011;40266;52.434;17.056;2022-09-09T02:33:00;11.70;;;7.20;;
54368;SDS011;40266;52.434;17.056;2022-09-09T02:36:07;13.90;;;8.80;;
54368;SDS011;40266;52.434;17.056;2022-09-09T02:39:03;60.80;;;9.00;;
54368;SDS011;40266;52.434;17.056;2022-09-09T02:41:50;14.30;;;8.40;;
54368;SDS011;40266;52.434;17.056;2022-09-09T02:44:42;14.70;;;8.60;;
54368;SDS011;40266;52.434;17.056;2022-09-09T02:47:59;19.40;;;9.10;;
54368;SDS011;40266;52.434;17.056;2022-09-09T02:51:14;13.40;;;8.80;;
54368;SDS011;40266;52.434;17.056;2022-09-09T02:54:24;12.30;;;8.40;;
54368;SDS011;40266;52.434;17.056;2022-09-09T02:57:19;13.40;;;9.30;;
54368;SDS011;40266;52.434;17.056;2022-09-09T03:00:27;15.20;;;9.80;;
54368;SDS011;40266;52.434;17.056;2022-09-09T03:03:31;18.90;;;10.70;;
54368;SDS011;40266;52.434;17.056;2022-09-09T03:09:23;19.10;;;11.30;;
54368;SDS011;40266;52.434;17.056;2022-09-09T03:12:19;20.60;;;13.60;;
54368;SDS011;40266;52.434;17.056;2022-09-09T03:15:11;20.90;;;12.40;;
54368;SDS011;40266;52.434;17.056;2022-09-09T03:17:54;20.00;;;12.40;;
54368;SDS011;40266;52.434;17.056;2022-09-09T03:20:39;21.10;;;13.90;;
54368;SDS011;40266;52.434;17.056;2022-09-09T03:23:33;30.50;;;19.40;;
54368;SDS011;40266;52.434;17.056;2022-09-09T03:26:17;31.20;;;21.30;;
54368;SDS011;40266;52.434;17.056;2022-09-09T03:29:04;33.80;;;22.00;;
54368;SDS011;40266;52.434;17.056;2022-09-09T03:31:49;31.50;;;20.80;;
54368;SDS011;40266;52.434;17.056;2022-09-09T03:34:35;32.80;;;20.40;;
54368;SDS011;40266;52.434;17.056;2022-09-09T03:37:19;31.40;;;19.70;;
54368;SDS011;40266;52.434;17.056;2022-09-09T03:40:06;30.80;;;21.50;;
54368;SDS011;40266;52.434;17.056;2022-09-09T03:42:53;27.90;;;20.20;;
54368;SDS011;40266;52.434;17.056;2022-09-09T03:45:36;31.60;;;21.20;;
54368;SDS011;40266;52.434;17.056;2022-09-09T03:48:19;29.80;;;22.50;;
54368;SDS011;40266;52.434;17.056;2022-09-09T03:51:02;32.40;;;22.80;;
54368;SDS011;40266;52.434;17.056;2022-09-09T03:53:47;29.30;;;20.60;;
54368;SDS011;40266;52.434;17.056;2022-09-09T03:56:31;28.00;;;20.20;;
54368;SDS011;40266;52.434;17.056;2022-09-09T03:59:15;35.90;;;22.30;;
54368;SDS011;40266;52.434;17.056;2022-09-09T04:02:03;30.40;;;20.40;;
54368;SDS011;40266;52.434;17.056;2022-09-09T04:04:46;30.00;;;19.70;;
54368;SDS011;40266;52.434;17.056;2022-09-09T04:07:30;30.40;;;19.50;;
54368;SDS011;40266;52.434;17.056;2022-09-09T04:10:14;29.70;;;19.40;;
54368;SDS011;40266;52.434;17.056;2022-09-09T04:12:58;29.80;;;20.00;;
54368;SDS011;40266;52.434;17.056;2022-09-09T04:15:42;30.90;;;20.50;;
54368;SDS011;40266;52.434;17.056;2022-09-09T04:18:26;37.20;;;23.60;;
54368;SDS011;40266;52.434;17.056;2022-09-09T04:21:33;33.00;;;23.00;;
54368;SDS011;40266;52.434;17.056;2022-09-09T04:24:21;32.40;;;22.30;;
54368;SDS011;40266;52.434;17.056;2022-09-09T04:27:08;32.20;;;20.60;;
54368;SDS011;40266;52.434;17.056;2022-09-09T04:29:55;36.10;;;21.40;;
54368;SDS011;40266;52.434;17.056;2022-09-09T04:32:40;33.60;;;22.40;;
54368;SDS011;40266;52.434;17.056;2022-09-09T04:35:36;32.00;;;23.70;;
54368;SDS011;40266;52.434;17.056;2022-09-09T04:41:13;35.90;;;24.40;;
54368;SDS011;40266;52.434;17.056;2022-09-09T04:43:58;35.40;;;25.30;;
54368;SDS011;40266;52.434;17.056;2022-09-09T04:46:42;38.50;;;24.50;;
54368;SDS011;40266;52.434;17.056;2022-09-09T04:49:25;38.90;;;24.10;;
54368;SDS011;40266;52.434;17.056;2022-09-09T04:52:10;34.70;;;23.60;;
54368;SDS011;40266;52.434;17.056;2022-09-09T04:54:59;35.60;;;23.00;;
54368;SDS011;40266;52.434;17.056;2022-09-09T04:57:55;32.30;;;20.00;;
54368;SDS011;40266;52.434;17.056;2022-09-09T05:00:45;30.10;;;19.30;;
54368;SDS011;40266;52.434;17.056;2022-09-09T05:03:29;32.60;;;19.10;;
54368;SDS011;40266;52.434;17.056;2022-09-09T05:06:12;32.70;;;20.50;;
54368;SDS011;40266;52.434;17.056;2022-09-09T05:09:01;29.80;;;20.20;;
54368;SDS011;40266;52.434;17.056;2022-09-09T05:12:04;32.80;;;21.10;;
54368;SDS011;40266;52.434;17.056;2022-09-09T05:14:51;34.20;;;22.70;;
54368;SDS011;40266;52.434;17.056;2022-09-09T05:17:35;30.90;;;20.50;;
54368;SDS011;40266;52.434;17.056;2022-09-09T05:20:19;31.90;;;20.20;;
54368;SDS011;40266;52.434;17.056;2022-09-09T05:23:02;29.20;;;19.90;;
54368;SDS011;40266;52.434;17.056;2022-09-09T05:25:54;29.90;;;20.30;;
54368;SDS011;40266;52.434;17.056;2022-09-09T05:28:39;30.00;;;21.70;;
54368;SDS011;40266;52.434;17.056;2022-09-09T05:31:25;34.80;;;22.60;;
54368;SDS011;40266;52.434;17.056;2022-09-09T05:34:34;39.30;;;24.90;;
54368;SDS011;40266;52.434;17.056;2022-09-09T05:41:11;44.40;;;28.70;;
54368;SDS011;40266;52.434;17.056;2022-09-09T05:43:57;49.80;;;32.10;;
54368;SDS011;40266;52.434;17.056;2022-09-09T05:46:41;46.60;;;28.60;;
54368;SDS011;40266;52.434;17.056;2022-09-09T05:49:30;48.00;;;28.90;;
54368;SDS011;40266;52.434;17.056;2022-09-09T05:52:35;49.30;;;30.10;;
54368;SDS011;40266;52.434;17.056;2022-09-09T05:55:38;47.00;;;31.30;;
54368;SDS011;40266;52.434;17.056;2022-09-09T05:58:47;42.20;;;29.00;;
54368;SDS011;40266;52.434;17.056;2022-09-09T06:01:56;46.60;;;30.50;;
54368;SDS011;40266;52.434;17.056;2022-09-09T06:07:38;42.10;;;28.10;;
54368;SDS011;40266;52.434;17.056;2022-09-09T06:10:46;40.60;;;28.90;;
54368;SDS011;40266;52.434;17.056;2022-09-09T06:13:30;41.90;;;29.40;;
54368;SDS011;40266;52.434;17.056;2022-09-09T06:16:37;40.60;;;28.30;;
54368;SDS011;40266;52.434;17.056;2022-09-09T06:22:44;40.60;;;29.30;;
54368;SDS011;40266;52.434;17.056;2022-09-09T06:25:48;37.60;;;26.70;;
54368;SDS011;40266;52.434;17.056;2022-09-09T06:28:32;36.30;;;26.20;;
54368;SDS011;40266;52.434;17.056;2022-09-09T06:31:36;37.50;;;26.90;;
54368;SDS011;40266;52.434;17.056;2022-09-09T06:34:29;37.20;;;27.40;;
54368;SDS011;40266;52.434;17.056;2022-09-09T06:37:13;37.20;;;28.00;;
54368;SDS011;40266;52.434;17.056;2022-09-09T06:40:00;37.60;;;28.10;;
54368;SDS011;40266;52.434;17.056;2022-09-09T06:42:47;36.90;;;27.30;;
54368;SDS011;40266;52.434;17.056;2022-09-09T06:46:02;31.40;;;24.00;;
54368;SDS011;40266;52.434;17.056;2022-09-09T06:48:47;32.20;;;23.00;;
54368;SDS011;40266;52.434;17.056;2022-09-09T06:51:34;31.70;;;23.00;;
54368;SDS011;40266;52.434;17.056;2022-09-09T06:54:27;30.00;;;22.40;;
54368;SDS011;40266;52.434;17.056;2022-09-09T06:57:17;30.70;;;22.60;;
54368;SDS011;40266;52.434;17.056;2022-09-09T07:00:22;29.60;;;20.80;;
54368;SDS011;40266;52.434;17.056;2022-09-09T07:03:05;27.50;;;20.10;;
54368;SDS011;40266;52.434;17.056;2022-09-09T07:05:55;28.30;;;21.10;;
54368;SDS011;40266;52.434;17.056;2022-09-09T07:08:39;28.00;;;19.60;;
54368;SDS011;40266;52.434;17.056;2022-09-09T07:11:24;30.00;;;20.40;;
54368;SDS011;40266;52.434;17.056;2022-09-09T07:14:09;25.00;;;18.60;;
54368;SDS011;40266;52.434;17.056;2022-09-09T07:17:02;31.20;;;18.80;;
54368;SDS011;40266;52.434;17.056;2022-09-09T07:19:48;25.40;;;17.70;;
54368;SDS011;40266;52.434;17.056;2022-09-09T07:22:32;27.90;;;18.40;;
54368;SDS011;40266;52.434;17.056;2022-09-09T07:25:17;26.40;;;18.90;;
54368;SDS011;40266;52.434;17.056;2022-09-09T07:28:01;25.50;;;17.90;;
54368;SDS011;40266;52.434;17.056;2022-09-09T07:30:52;24.20;;;16.80;;
54368;SDS011;40266;52.434;17.056;2022-09-09T07:33:46;23.10;;;16.90;;
54368;SDS011;40266;52.434;17.056;2022-09-09T07:36:35;22.20;;;16.70;;
54368;SDS011;40266;52.434;17.056;2022-09-09T07:39:21;21.50;;;15.50;;
54368;SDS011;40266;52.434;17.056;2022-09-09T07:42:07;22.90;;;14.60;;
54368;SDS011;40266;52.434;17.056;2022-09-09T07:44:52;20.30;;;13.50;;
54368;SDS011;40266;52.434;17.056;2022-09-09T07:47:37;17.50;;;12.60;;
54368;SDS011;40266;52.434;17.056;2022-09-09T07:50:20;21.60;;;14.70;;
54368;SDS011;40266;52.434;17.056;2022-09-09T07:53:06;22.10;;;14.90;;
54368;SDS011;40266;52.434;17.056;2022-09-09T07:55:49;18.70;;;13.20;;
54368;SDS011;40266;52.434;17.056;2022-09-09T07:58:46;20.50;;;13.80;;
54368;SDS011;40266;52.434;17.056;2022-09-09T08:01:32;26.00;;;14.20;;
54368;SDS011;40266;52.434;17.056;2022-09-09T08:04:27;19.10;;;12.70;;
54368;SDS011;40266;52.434;17.056;2022-09-09T08:07:22;21.20;;;13.20;;
54368;SDS011;40266;52.434;17.056;2022-09-09T08:10:08;19.40;;;12.70;;
54368;SDS011;40266;52.434;17.056;2022-09-09T08:12:56;20.40;;;14.40;;
54368;SDS011;40266;52.434;17.056;2022-09-09T08:16:08;20.10;;;13.70;;
54368;SDS011;40266;52.434;17.056;2022-09-09T08:19:07;18.00;;;13.00;;
54368;SDS011;40266;52.434;17.056;2022-09-09T08:21:54;19.60;;;13.60;;
54368;SDS011;40266;52.434;17.056;2022-09-09T08:24:37;19.90;;;14.20;;
54368;SDS011;40266;52.434;17.056;2022-09-09T08:27:32;19.20;;;12.40;;
54368;SDS011;40266;52.434;17.056;2022-09-09T08:30:15;17.50;;;12.50;;
54368;SDS011;40266;52.434;17.056;2022-09-09T08:36:04;19.30;;;13.10;;
54368;SDS011;40266;52.434;17.056;2022-09-09T08:38:49;17.80;;;11.30;;
54368;SDS011;40266;52.434;17.056;2022-09-09T08:41:52;17.90;;;9.90;;
54368;SDS011;40266;52.434;17.056;2022-09-09T08:48:01;17.20;;;13.30;;
54368;SDS011;40266;52.434;17.056;2022-09-09T08:50:58;17.40;;;12.30;;
54368;SDS011;40266;52.434;17.056;2022-09-09T08:53:49;15.50;;;10.90;;
54368;SDS011;40266;52.434;17.056;2022-09-09T08:56:44;16.90;;;10.50;;
54368;SDS011;40266;52.434;17.056;2022-09-09T08:59:35;14.80;;;9.60;;
54368;SDS011;40266;52.434;17.056;2022-09-09T09:09:50;11.20;;;8.40;;
54368;SDS011;40266;52.434;17.056;2022-09-09T09:13:34;12.00;;;8.40;;
54368;SDS011;40266;52.434;17.056;2022-09-09T09:19:42;10.90;;;7.90;;
54368;SDS011;40266;52.434;17.056;2022-09-09T09:22:42;9.40;;;6.40;;
54368;SDS011;40266;52.434;17.056;2022-09-09T09:25:32;8.00;;;6.00;;
54368;SDS011;40266;52.434;17.056;2022-09-09T09:28:31;9.30;;;5.20;;
54368;SDS011;40266;52.434;17.056;2022-09-09T09:31:27;9.10;;;6.60;;
54368;SDS011;40266;52.434;17.056;2022-09-09T09:34:31;10.10;;;6.10;;
54368;SDS011;40266;52.434;17.056;2022-09-09T09:37:26;10.80;;;7.00;;
54368;SDS011;40266;52.434;17.056;2022-09-09T09:40:19;8.90;;;5.60;;
54368;SDS011;40266;52.434;17.056;2022-09-09T09:43:16;8.90;;;6.70;;
54368;SDS011;40266;52.434;17.056;2022-09-09T09:46:19;7.60;;;5.90;;
54368;SDS011;40266;52.434;17.056;2022-09-09T09:49:10;8.30;;;5.40;;
54368;SDS011;40266;52.434;17.056;2022-09-09T09:52:01;9.80;;;6.80;;
54368;SDS011;40266;52.434;17.056;2022-09-09T09:54:49;6.70;;;5.20;;
54368;SDS011;40266;52.434;17.056;2022-09-09T09:57:44;8.80;;;5.30;;
54368;SDS011;40266;52.434;17.056;2022-09-09T10:00:29;8.50;;;5.90;;
54368;SDS011;40266;52.434;17.056;2022-09-09T10:03:24;7.90;;;5.10;;
54368;SDS011;40266;52.434;17.056;2022-09-09T10:06:08;9.00;;;5.00;;
54368;SDS011;40266;52.434;17.056;2022-09-09T10:08:53;5.80;;;4.70;;
54368;SDS011;40266;52.434;17.056;2022-09-09T10:12:35;10.50;;;4.70;;
54368;SDS011;40266;52.434;17.056;2022-09-09T10:18:38;6.40;;;3.90;;
54368;SDS011;40266;52.434;17.056;2022-09-09T10:21:28;9.00;;;5.00;;
54368;SDS011;40266;52.434;17.056;2022-09-09T10:24:30;6.30;;;4.20;;
54368;SDS011;40266;52.434;17.056;2022-09-09T10:34:12;6.00;;;3.90;;
54368;SDS011;40266;52.434;17.056;2022-09-09T10:43:57;4.70;;;3.60;;
54368;SDS011;40266;52.434;17.056;2022-09-09T10:54:01;4.30;;;2.80;;
54368;SDS011;40266;52.434;17.056;2022-09-09T10:57:00;7.40;;;2.60;;
54368;SDS011;40266;52.434;17.056;2022-09-09T10:59:55;7.30;;;2.70;;
54368;SDS011;40266;52.434;17.056;2022-09-09T11:02:49;6.80;;;2.80;;
54368;SDS011;40266;52.434;17.056;2022-09-09T11:05:43;3.30;;;2.60;;
54368;SDS011;40266;52.434;17.056;2022-09-09T11:08:30;2.60;;;2.40;;
54368;SDS011;40266;52.434;17.056;2022-09-09T11:11:20;3.00;;;2.70;;
54368;SDS011;40266;52.434;17.056;2022-09-09T11:14:57;5.50;;;3.20;;
54368;SDS011;40266;52.434;17.056;2022-09-09T11:18:09;2.70;;;2.40;;
54368;SDS011;40266;52.434;17.056;2022-09-09T11:21:15;5.10;;;2.50;;
54368;SDS011;40266;52.434;17.056;2022-09-09T11:24:19;6.80;;;2.50;;
54368;SDS011;40266;52.434;17.056;2022-09-09T11:27:20;3.90;;;2.50;;
54368;SDS011;40266;52.434;17.056;2022-09-09T11:30:28;2.30;;;2.10;;
54368;SDS011;40266;52.434;17.056;2022-09-09T11:36:55;4.80;;;2.30;;
54368;SDS011;40266;52.434;17.056;2022-09-09T11:40:14;5.00;;;1.90;;
54368;SDS011;40266;52.434;17.056;2022-09-09T11:43:09;4.20;;;1.70;;
54368;SDS011;40266;52.434;17.056;2022-09-09T11:45:58;3.60;;;2.00;;
54368;SDS011;40266;52.434;17.056;2022-09-09T11:48:56;1.90;;;1.80;;
54368;SDS011;40266;52.434;17.056;2022-09-09T11:51:45;2.50;;;1.30;;
54368;SDS011;40266;52.434;17.056;2022-09-09T11:57:32;4.60;;;1.60;;
54368;SDS011;40266;52.434;17.056;2022-09-09T12:06:24;7.90;;;2.70;;
54368;SDS011;40266;52.434;17.056;2022-09-09T12:09:17;4.80;;;1.90;;
54368;SDS011;40266;52.434;17.056;2022-09-09T12:17:45;2.70;;;1.70;;
54368;SDS011;40266;52.434;17.056;2022-09-09T12:24:15;4.00;;;1.30;;
54368;SDS011;40266;52.434;17.056;2022-09-09T12:27:25;3.10;;;1.90;;
54368;SDS011;40266;52.434;17.056;2022-09-09T12:30:28;5.40;;;1.70;;
54368;SDS011;40266;52.434;17.056;2022-09-09T12:33:18;4.10;;;1.30;;
54368;SDS011;40266;52.434;17.056;2022-09-09T12:36:24;2.70;;;1.20;;
54368;SDS011;40266;52.434;17.056;2022-09-09T12:42:04;4.10;;;1.70;;
54368;SDS011;40266;52.434;17.056;2022-09-09T12:44:57;3.60;;;1.80;;
54368;SDS011;40266;52.434;17.056;2022-09-09T12:47:42;5.30;;;1.60;;
54368;SDS011;40266;52.434;17.056;2022-09-09T12:50:37;4.30;;;1.80;;
54368;SDS011;40266;52.434;17.056;2022-09-09T12:56:24;2.00;;;1.50;;
54368;SDS011;40266;52.434;17.056;2022-09-09T12:59:17;2.30;;;1.50;;
54368;SDS011;40266;52.434;17.056;2022-09-09T13:02:16;5.60;;;2.20;;
54368;SDS011;40266;52.434;17.056;2022-09-09T13:05:37;2.90;;;1.60;;
54368;SDS011;40266;52.434;17.056;2022-09-09T13:08:20;3.00;;;1.50;;
54368;SDS011;40266;52.434;17.056;2022-09-09T13:11:04;6.90;;;2.00;;
54368;SDS011;40266;52.434;17.056;2022-09-09T13:13:56;5.60;;;2.40;;
54368;SDS011;40266;52.434;17.056;2022-09-09T13:16:53;2.80;;;2.00;;
54368;SDS011;40266;52.434;17.056;2022-09-09T13:19:39;2.50;;;1.70;;
54368;SDS011;40266;52.434;17.056;2022-09-09T13:22:38;3.70;;;1.60;;
54368;SDS011;40266;52.434;17.056;2022-09-09T13:25:24;6.30;;;2.50;;
54368;SDS011;40266;52.434;17.056;2022-09-09T13:28:20;6.20;;;2.70;;
54368;SDS011;40266;52.434;17.056;2022-09-09T13:31:19;5.20;;;1.80;;
54368;SDS011;40266;52.434;17.056;2022-09-09T13:34:11;2.80;;;1.70;;
54368;SDS011;40266;52.434;17.056;2022-09-09T13:37:17;4.40;;;1.70;;
54368;SDS011;40266;52.434;17.056;2022-09-09T13:40:17;2.30;;;1.50;;
54368;SDS011;40266;52.434;17.056;2022-09-09T13:43:12;2.60;;;1.70;;
54368;SDS011;40266;52.434;17.056;2022-09-09T13:46:04;4.50;;;1.50;;
54368;SDS011;40266;52.434;17.056;2022-09-09T13:52:05;6.90;;;1.60;;
54368;SDS011;40266;52.434;17.056;2022-09-09T13:54:52;3.50;;;1.60;;
54368;SDS011;40266;52.434;17.056;2022-09-09T13:57:49;2.60;;;1.80;;
54368;SDS011;40266;52.434;17.056;2022-09-09T14:00:34;2.10;;;1.60;;
54368;SDS011;40266;52.434;17.056;2022-09-09T14:03:17;2.50;;;1.70;;
54368;SDS011;40266;52.434;17.056;2022-09-09T14:06:00;4.00;;;1.50;;
54368;SDS011;40266;52.434;17.056;2022-09-09T14:08:44;3.40;;;1.30;;
54368;SDS011;40266;52.434;17.056;2022-09-09T14:11:46;4.90;;;1.50;;
54368;SDS011;40266;52.434;17.056;2022-09-09T14:14:38;2.50;;;1.70;;
54368;SDS011;40266;52.434;17.056;2022-09-09T14:17:21;3.90;;;2.20;;
54368;SDS011;40266;52.434;17.056;2022-09-09T14:20:17;3.20;;;1.50;;
54368;SDS011;40266;52.434;17.056;2022-09-09T14:23:07;4.40;;;1.90;;
54368;SDS011;40266;52.434;17.056;2022-09-09T14:25:54;5.70;;;1.60;;
54368;SDS011;40266;52.434;17.056;2022-09-09T14:28:47;2.90;;;1.70;;
54368;SDS011;40266;52.434;17.056;2022-09-09T14:34:31;5.70;;;2.30;;
54368;SDS011;40266;52.434;17.056;2022-09-09T14:37:15;4.20;;;1.30;;
54368;SDS011;40266;52.434;17.056;2022-09-09T14:39:59;3.20;;;1.20;;
54368;SDS011;40266;52.434;17.056;2022-09-09T14:42:50;4.40;;;1.50;;
54368;SDS011;40266;52.434;17.056;2022-09-09T14:48:32;5.90;;;1.80;;
54368;SDS011;40266;52.434;17.056;2022-09-09T14:54:34;5.90;;;2.00;;
54368;SDS011;40266;52.434;17.056;2022-09-09T14:57:34;5.00;;;1.30;;
54368;SDS011;40266;52.434;17.056;2022-09-09T15:03:48;4.70;;;1.50;;
54368;SDS011;40266;52.434;17.056;2022-09-09T15:06:44;4.30;;;1.30;;
54368;SDS011;40266;52.434;17.056;2022-09-09T15:09:39;8.70;;;1.60;;
54368;SDS011;40266;52.434;17.056;2022-09-09T15:12:43;1.90;;;1.30;;
54368;SDS011;40266;52.434;17.056;2022-09-09T15:15:26;4.80;;;1.10;;
54368;SDS011;40266;52.434;17.056;2022-09-09T15:18:18;2.40;;;1.20;;
54368;SDS011;40266;52.434;17.056;2022-09-09T15:21:15;2.40;;;0.90;;
54368;SDS011;40266;52.434;17.056;2022-09-09T15:24:03;7.70;;;1.80;;
54368;SDS011;40266;52.434;17.056;2022-09-09T15:26:50;6.00;;;1.70;;
54368;SDS011;40266;52.434;17.056;2022-09-09T15:29:36;3.30;;;1.80;;
54368;SDS011;40266;52.434;17.056;2022-09-09T15:32:20;3.60;;;1.20;;
54368;SDS011;40266;52.434;17.056;2022-09-09T15:35:16;2.90;;;1.50;;
54368;SDS011;40266;52.434;17.056;2022-09-09T15:40:44;3.60;;;1.50;;
54368;SDS011;40266;52.434;17.056;2022-09-09T15:43:29;2.10;;;1.50;;
54368;SDS011;40266;52.434;17.056;2022-09-09T15:49:12;2.80;;;0.90;;
54368;SDS011;40266;52.434;17.056;2022-09-09T15:51:59;2.30;;;1.50;;
54368;SDS011;40266;52.434;17.056;2022-09-09T15:54:48;5.80;;;1.80;;
54368;SDS011;40266;52.434;17.056;2022-09-09T15:57:34;4.40;;;1.80;;
54368;SDS011;40266;52.434;17.056;2022-09-09T16:00:17;3.50;;;1.30;;
54368;SDS011;40266;52.434;17.056;2022-09-09T16:03:00;4.80;;;2.00;;
54368;SDS011;40266;52.434;17.056;2022-09-09T16:05:52;5.60;;;1.70;;
54368;SDS011;40266;52.434;17.056;2022-09-09T16:08:39;5.10;;;1.60;;
54368;SDS011;40266;52.434;17.056;2022-09-09T16:11:36;4.10;;;1.80;;
54368;SDS011;40266;52.434;17.056;2022-09-09T16:14:20;4.10;;;2.20;;
54368;SDS011;40266;52.434;17.056;2022-09-09T16:17:06;4.70;;;1.40;;
54368;SDS011;40266;52.434;17.056;2022-09-09T16:19:49;2.70;;;1.30;;
54368;SDS011;40266;52.434;17.056;2022-09-09T16:22:36;6.90;;;2.10;;
54368;SDS011;40266;52.434;17.056;2022-09-09T16:25:22;6.80;;;1.90;;
54368;SDS011;40266;52.434;17.056;2022-09-09T16:28:08;2.60;;;1.70;;
54368;SDS011;40266;52.434;17.056;2022-09-09T16:30:54;4.20;;;2.00;;
54368;SDS011;40266;52.434;17.056;2022-09-09T16:33:41;4.10;;;1.90;;
54368;SDS011;40266;52.434;17.056;2022-09-09T16:36:36;7.10;;;2.40;;
54368;SDS011;40266;52.434;17.056;2022-09-09T16:39:30;6.20;;;2.20;;
54368;SDS011;40266;52.434;17.056;2022-09-09T16:42:16;4.80;;;2.20;;
54368;SDS011;40266;52.434;17.056;2022-09-09T16:45:20;4.10;;;1.90;;
54368;SDS011;40266;52.434;17.056;2022-09-09T16:48:11;3.50;;;1.90;;
54368;SDS011;40266;52.434;17.056;2022-09-09T16:51:04;4.70;;;2.40;;
54368;SDS011;40266;52.434;17.056;2022-09-09T16:53:57;6.40;;;2.20;;
54368;SDS011;40266;52.434;17.056;2022-09-09T16:57:02;2.80;;;1.60;;
54368;SDS011;40266;52.434;17.056;2022-09-09T16:59:44;4.60;;;2.10;;
54368;SDS011;40266;52.434;17.056;2022-09-09T17:02:45;4.60;;;2.40;;
54368;SDS011;40266;52.434;17.056;2022-09-09T17:05:39;6.40;;;2.50;;
54368;SDS011;40266;52.434;17.056;2022-09-09T17:08:25;5.70;;;2.20;;
54368;SDS011;40266;52.434;17.056;2022-09-09T17:11:15;5.60;;;2.10;;
54368;SDS011;40266;52.434;17.056;2022-09-09T17:14:13;2.90;;;1.80;;
54368;SDS011;40266;52.434;17.056;2022-09-09T17:17:08;4.10;;;2.10;;
54368;SDS011;40266;52.434;17.056;2022-09-09T17:23:15;5.40;;;2.40;;
54368;SDS011;40266;52.434;17.056;2022-09-09T17:26:02;4.70;;;2.40;;
54368;SDS011;40266;52.434;17.056;2022-09-09T17:29:08;6.20;;;2.30;;
54368;SDS011;40266;52.434;17.056;2022-09-09T17:32:24;3.60;;;2.20;;
54368;SDS011;40266;52.434;17.056;2022-09-09T17:35:28;5.80;;;2.70;;
54368;SDS011;40266;52.434;17.056;2022-09-09T17:38:13;4.10;;;2.40;;
54368;SDS011;40266;52.434;17.056;2022-09-09T17:41:31;6.60;;;2.70;;
54368;SDS011;40266;52.434;17.056;2022-09-09T17:44:24;15.50;;;2.80;;
54368;SDS011;40266;52.434;17.056;2022-09-09T17:47:17;9.40;;;2.50;;
54368;SDS011;40266;52.434;17.056;2022-09-09T17:53:46;5.00;;;2.70;;
54368;SDS011;40266;52.434;17.056;2022-09-09T17:59:58;5.30;;;2.70;;
54368;SDS011;40266;52.434;17.056;2022-09-09T18:02:56;6.20;;;2.70;;
54368;SDS011;40266;52.434;17.056;2022-09-09T18:06:03;3.90;;;2.50;;
54368;SDS011;40266;52.434;17.056;2022-09-09T18:09:21;6.40;;;2.40;;
54368;SDS011;40266;52.434;17.056;2022-09-09T18:12:11;4.00;;;2.70;;
54368;SDS011;40266;52.434;17.056;2022-09-09T18:21:31;7.80;;;3.10;;
54368;SDS011;40266;52.434;17.056;2022-09-09T18:24:40;7.00;;;3.20;;
54368;SDS011;40266;52.434;17.056;2022-09-09T18:27:41;6.90;;;3.30;;
54368;SDS011;40266;52.434;17.056;2022-09-09T18:30:44;7.70;;;3.60;;
54368;SDS011;40266;52.434;17.056;2022-09-09T18:34:20;8.90;;;3.40;;
54368;SDS011;40266;52.434;17.056;2022-09-09T18:37:12;8.50;;;3.80;;
54368;SDS011;40266;52.434;17.056;2022-09-09T18:40:40;14.70;;;5.40;;
54368;SDS011;40266;52.434;17.056;2022-09-09T18:54:42;9.00;;;4.00;;
54368;SDS011;40266;52.434;17.056;2022-09-09T19:01:39;11.30;;;4.40;;
54368;SDS011;40266;52.434;17.056;2022-09-09T19:14:50;16.60;;;5.60;;
54368;SDS011;40266;52.434;17.056;2022-09-09T19:17:54;12.30;;;4.80;;
54368;SDS011;40266;52.434;17.056;2022-09-09T19:27:31;12.30;;;5.10;;
54368;SDS011;40266;52.434;17.056;2022-09-09T19:33:41;8.60;;;4.80;;
54368;SDS011;40266;52.434;17.056;2022-09-09T19:39:48;11.20;;;5.60;;
54368;SDS011;40266;52.434;17.056;2022-09-09T19:42:53;10.20;;;6.10;;
54368;SDS011;40266;52.434;17.056;2022-09-09T19:46:07;12.40;;;6.50;;
54368;SDS011;40266;52.434;17.056;2022-09-09T19:48:57;13.70;;;7.40;;
54368;SDS011;40266;52.434;17.056;2022-09-09T19:58:22;16.60;;;6.80;;
54368;SDS011;40266;52.434;17.056;2022-09-09T20:10:57;13.50;;;7.70;;
54368;SDS011;40266;52.434;17.056;2022-09-09T20:14:04;14.80;;;8.00;;
54368;SDS011;40266;52.434;17.056;2022-09-09T20:16:53;17.60;;;8.70;;
54368;SDS011;40266;52.434;17.056;2022-09-09T20:23:05;15.70;;;8.70;;
54368;SDS011;40266;52.434;17.056;2022-09-09T20:26:07;13.80;;;8.70;;
54368;SDS011;40266;52.434;17.056;2022-09-09T20:28:55;19.20;;;9.80;;